Time;durP1;ratioP1;P1;durP2;ratioP2;P2;SDS_P1;SDS_P2;PMS_P1;PMS_P2;Temp;Humidity;BMP_temperature;BMP_pressure;BME280_temperature;BME280_humidity;BME280_pressure;Samples;Min_cycle;Max_cycle;Signal;HPM_P1;HPM_P2
2022/04/06 00:00:00;;;;;;;18.27;10.35;;;;;;;;;;5012793;28;20026;-39
2022/04/06 00:02:26;;;;;;;15.43;9.88;;;;;;;;;;5013127;28;20025;-39
2022/04/06 00:04:52;;;;;;;15.27;9.85;;;;;;;;;;5013016;28;20449;-39
2022/04/06 00:07:18;;;;;;;19.02;10.27;;;;;;;;;;5012818;28;20081;-40
2022/04/06 00:09:44;;;;;;;20.17;10.63;;;;;;;;;;5013043;28;20021;-40
2022/04/06 00:12:09;;;;;;;19.23;10.05;;;;;;;;;;5013012;28;20041;-39
2022/04/06 00:14:36;;;;;;;17.65;9.65;;;;;;;;;;5012709;28;20437;-38
2022/04/06 00:17:05;;;;;;;16.77;9.05;;;;;;;;;;5012780;28;20103;-40
2022/04/06 00:19:33;;;;;;;12.40;7.75;;;;;;;;;;5012599;28;20072;-39
2022/04/06 00:21:58;;;;;;;11.65;6.80;;;;;;;;;;5012538;28;20036;-38
2022/04/06 00:24:24;;;;;;;10.20;6.53;;;;;;;;;;5012502;28;20101;-38
2022/04/06 00:26:49;;;;;;;10.93;6.07;;;;;;;;;;5012534;28;20034;-38
2022/04/06 00:29:15;;;;;;;11.00;5.90;;;;;;;;;;5014683;28;20060;-38
2022/04/06 00:31:40;;;;;;;11.82;5.97;;;;;;;;;;5016483;28;20033;-38
2022/04/06 00:34:05;;;;;;;9.75;6.38;;;;;;;;;;5016786;28;20029;-38
2022/04/06 00:36:31;;;;;;;9.40;5.85;;;;;;;;;;5016427;28;20386;-38
2022/04/06 00:38:57;;;;;;;10.57;6.32;;;;;;;;;;5016389;28;20037;-38
2022/04/06 00:41:22;;;;;;;10.13;6.32;;;;;;;;;;5016434;28;20037;-38
2022/04/06 00:44:12;;;;;;;9.90;6.28;;;;;;;;;;5016318;28;20033;-38
2022/04/06 00:46:38;;;;;;;12.48;7.10;;;;;;;;;;5016314;28;20060;-38
2022/04/06 00:49:04;;;;;;;12.75;5.78;;;;;;;;;;5016492;28;20466;-38
2022/04/06 00:51:30;;;;;;;11.65;6.60;;;;;;;;;;5016238;28;20054;-38
2022/04/06 00:53:58;;;;;;;14.95;6.13;;;;;;;;;;5016342;28;20053;-38
2022/04/06 00:56:24;;;;;;;10.18;6.05;;;;;;;;;;5016286;28;22033;-38
2022/04/06 00:58:49;;;;;;;11.20;6.63;;;;;;;;;;5016372;28;20108;-38
2022/04/06 01:01:15;;;;;;;9.75;5.68;;;;;;;;;;5016271;28;20022;-39
2022/04/06 01:03:40;;;;;;;9.05;6.28;;;;;;;;;;5015902;28;20117;-38
2022/04/06 01:06:07;;;;;;;8.00;5.97;;;;;;;;;;5015882;28;20072;-39
2022/04/06 01:08:33;;;;;;;11.43;5.68;;;;;;;;;;5015898;28;20026;-39
2022/04/06 01:10:59;;;;;;;9.18;6.50;;;;;;;;;;5016115;28;20044;-39
2022/04/06 01:13:27;;;;;;;10.68;7.00;;;;;;;;;;5015764;28;20474;-38
2022/04/06 01:15:52;;;;;;;12.45;6.47;;;;;;;;;;5016033;28;20048;-38
2022/04/06 01:18:18;;;;;;;8.05;5.35;;;;;;;;;;5015649;28;20466;-38
2022/04/06 01:20:43;;;;;;;10.50;5.68;;;;;;;;;;5015613;28;20509;-38
2022/04/06 01:23:09;;;;;;;10.00;6.10;;;;;;;;;;5015885;28;20119;-38
2022/04/06 01:25:38;;;;;;;13.00;5.95;;;;;;;;;;5015858;28;20034;-39
2022/04/06 01:28:04;;;;;;;10.93;6.40;;;;;;;;;;5015720;28;20053;-39
2022/04/06 01:30:29;;;;;;;13.85;6.47;;;;;;;;;;5015455;28;20034;-38
2022/04/06 01:32:57;;;;;;;12.02;6.57;;;;;;;;;;5015483;28;20040;-38
2022/04/06 01:35:22;;;;;;;9.77;6.15;;;;;;;;;;5015686;28;20109;-38
2022/04/06 01:37:48;;;;;;;10.40;5.82;;;;;;;;;;5015279;28;20455;-39
2022/04/06 01:40:13;;;;;;;9.43;5.18;;;;;;;;;;5015142;28;20113;-38
2022/04/06 01:42:39;;;;;;;7.68;4.60;;;;;;;;;;5015284;28;20105;-38
2022/04/06 01:45:05;;;;;;;9.15;4.85;;;;;;;;;;5015524;28;20113;-38
2022/04/06 01:47:30;;;;;;;6.95;4.25;;;;;;;;;;5015105;28;20022;-38
2022/04/06 01:52:40;;;;;;;7.15;4.43;;;;;;;;;;5015118;28;20044;-39
2022/04/06 01:55:12;;;;;;;7.78;4.95;;;;;;;;;;5015000;28;20113;-39
2022/04/06 01:57:38;;;;;;;9.00;5.50;;;;;;;;;;5015273;28;20030;-39
2022/04/06 02:00:13;;;;;;;9.10;5.28;;;;;;;;;;5014993;28;20022;-39
2022/04/06 02:02:40;;;;;;;11.10;5.82;;;;;;;;;;5015257;28;20032;-38
2022/04/06 02:05:07;;;;;;;7.22;3.92;;;;;;;;;;5015092;28;20530;-38
2022/04/06 02:07:32;;;;;;;8.15;3.35;;;;;;;;;;5014808;28;20117;-38
2022/04/06 02:10:02;;;;;;;5.32;3.88;;;;;;;;;;5015006;28;20104;-38
2022/04/06 02:12:29;;;;;;;6.65;3.85;;;;;;;;;;5015022;28;20053;-39
2022/04/06 02:14:55;;;;;;;7.10;4.97;;;;;;;;;;5014720;28;20034;-39
2022/04/06 02:17:21;;;;;;;9.93;5.25;;;;;;;;;;5014559;28;20041;-38
2022/04/06 02:19:47;;;;;;;7.35;5.18;;;;;;;;;;5014895;28;20026;-39
2022/04/06 02:22:13;;;;;;;7.38;4.65;;;;;;;;;;5014535;28;20545;-39
2022/04/06 02:24:38;;;;;;;9.82;4.82;;;;;;;;;;5014432;28;20026;-38
2022/04/06 02:27:07;;;;;;;10.15;5.10;;;;;;;;;;5014559;28;20029;-40
2022/04/06 02:29:34;;;;;;;8.68;4.78;;;;;;;;;;5014348;28;20136;-39
2022/04/06 02:31:59;;;;;;;9.05;4.90;;;;;;;;;;5014359;28;20045;-38
2022/04/06 02:34:25;;;;;;;8.15;4.55;;;;;;;;;;5014582;28;20033;-38
2022/04/06 02:36:50;;;;;;;7.72;5.10;;;;;;;;;;5014143;28;20479;-39
2022/04/06 02:39:16;;;;;;;8.73;4.57;;;;;;;;;;5014144;28;20109;-39
2022/04/06 02:41:41;;;;;;;8.45;4.55;;;;;;;;;;5014437;28;20037;-38
2022/04/06 02:44:07;;;;;;;8.32;4.57;;;;;;;;;;5014047;28;20124;-38
2022/04/06 02:46:33;;;;;;;8.02;4.40;;;;;;;;;;5014070;28;20029;-38
2022/04/06 02:48:59;;;;;;;10.90;5.10;;;;;;;;;;5014029;28;20040;-38
2022/04/06 02:51:24;;;;;;;9.05;5.10;;;;;;;;;;5013459;28;20050;-39
2022/04/06 02:53:50;;;;;;;10.48;5.18;;;;;;;;;;5014227;28;20026;-38
2022/04/06 02:56:16;;;;;;;9.90;5.68;;;;;;;;;;5013744;28;20025;-38
2022/04/06 02:58:41;;;;;;;9.75;5.75;;;;;;;;;;5014071;28;20034;-38
2022/04/06 03:01:06;;;;;;;16.63;6.20;;;;;;;;;;5013624;28;20109;-38
2022/04/06 03:03:32;;;;;;;8.38;5.22;;;;;;;;;;5014000;28;20463;-38
2022/04/06 03:05:57;;;;;;;10.13;6.60;;;;;;;;;;5014006;28;20486;-38
2022/04/06 03:08:23;;;;;;;13.80;7.72;;;;;;;;;;5013987;28;20026;-38
2022/04/06 03:10:49;;;;;;;10.25;6.35;;;;;;;;;;5013925;28;20124;-38
2022/04/06 03:13:14;;;;;;;10.10;6.28;;;;;;;;;;5013539;28;20030;-39
2022/04/06 03:15:40;;;;;;;9.68;5.43;;;;;;;;;;5013583;28;20108;-39
2022/04/06 03:18:06;;;;;;;8.98;5.43;;;;;;;;;;5013361;28;20029;-38
2022/04/06 03:20:31;;;;;;;7.50;4.72;;;;;;;;;;5013461;28;20061;-38
2022/04/06 03:22:57;;;;;;;10.50;4.47;;;;;;;;;;5013348;28;20030;-38
2022/04/06 03:25:23;;;;;;;11.90;5.30;;;;;;;;;;5013640;28;20029;-37
2022/04/06 03:27:48;;;;;;;9.15;5.75;;;;;;;;;;5013610;28;20022;-38
2022/04/06 03:30:14;;;;;;;8.40;5.70;;;;;;;;;;5013509;28;20061;-38
2022/04/06 03:32:41;;;;;;;8.00;5.35;;;;;;;;;;5013520;28;20040;-39
2022/04/06 03:35:07;;;;;;;9.27;5.70;;;;;;;;;;5013237;28;20033;-38
2022/04/06 03:37:33;;;;;;;8.27;5.65;;;;;;;;;;5013383;28;20108;-39
2022/04/06 03:39:58;;;;;;;8.32;5.30;;;;;;;;;;5013404;28;20145;-39
2022/04/06 03:42:24;;;;;;;4.53;3.78;;;;;;;;;;5013029;28;20481;-39
2022/04/06 03:44:49;;;;;;;8.75;4.90;;;;;;;;;;5013336;28;20033;-39
2022/04/06 03:47:15;;;;;;;12.00;6.07;;;;;;;;;;5013357;28;20410;-39
2022/04/06 03:49:41;;;;;;;10.50;5.97;;;;;;;;;;5013305;28;20018;-38
2022/04/06 03:52:07;;;;;;;9.15;5.53;;;;;;;;;;5012936;28;20426;-39
2022/04/06 03:54:32;;;;;;;8.10;5.28;;;;;;;;;;5012961;28;20030;-39
2022/04/06 03:56:58;;;;;;;10.63;5.72;;;;;;;;;;5012804;28;20040;-39
2022/04/06 03:59:24;;;;;;;7.32;4.22;;;;;;;;;;5013097;28;20029;-39
2022/04/06 04:01:49;;;;;;;9.07;4.85;;;;;;;;;;5013060;28;20113;-38
2022/04/06 04:04:15;;;;;;;6.65;4.30;;;;;;;;;;5012148;28;20029;-39
2022/04/06 04:06:40;;;;;;;3.83;2.67;;;;;;;;;;5012720;28;20044;-39
2022/04/06 04:09:07;;;;;;;8.07;4.63;;;;;;;;;;5012681;28;20029;-39
2022/04/06 04:11:33;;;;;;;4.35;3.22;;;;;;;;;;5012919;28;20025;-38
2022/04/06 04:13:59;;;;;;;5.63;3.92;;;;;;;;;;5012651;28;20029;-38
2022/04/06 04:16:25;;;;;;;11.40;6.40;;;;;;;;;;5012474;28;20467;-38
2022/04/06 04:18:50;;;;;;;17.90;6.78;;;;;;;;;;5012741;28;20077;-39
2022/04/06 04:21:34;;;;;;;8.88;6.63;;;;;;;;;;5012893;28;20373;-39
2022/04/06 04:24:05;;;;;;;21.95;12.82;;;;;;;;;;5012537;28;20029;-39
2022/04/06 04:26:31;;;;;;;18.27;10.50;;;;;;;;;;5012452;28;20029;-38
2022/04/06 04:28:57;;;;;;;9.15;6.00;;;;;;;;;;5012374;28;20030;-38
2022/04/06 04:31:23;;;;;;;8.18;5.28;;;;;;;;;;5012719;28;20076;-39
2022/04/06 04:33:48;;;;;;;8.95;5.18;;;;;;;;;;5012395;28;20026;-39
2022/04/06 04:36:15;;;;;;;6.88;4.85;;;;;;;;;;5012311;28;20033;-40
2022/04/06 04:38:42;;;;;;;11.45;5.60;;;;;;;;;;5012354;28;20026;-39
2022/04/06 04:41:07;;;;;;;9.43;5.10;;;;;;;;;;5012331;28;20030;-39
2022/04/06 04:43:33;;;;;;;7.93;4.95;;;;;;;;;;5012678;28;20029;-39
2022/04/06 04:45:59;;;;;;;8.48;5.57;;;;;;;;;;5012661;28;20544;-39
2022/04/06 04:48:25;;;;;;;9.65;5.45;;;;;;;;;;5012197;28;20513;-40
2022/04/06 04:50:51;;;;;;;7.90;5.18;;;;;;;;;;5012609;28;20053;-37
2022/04/06 04:53:16;;;;;;;12.20;5.32;;;;;;;;;;5011927;28;20046;-37
2022/04/06 04:55:42;;;;;;;8.98;5.22;;;;;;;;;;5012598;28;20029;-37
2022/04/06 04:58:08;;;;;;;8.93;5.63;;;;;;;;;;5012086;28;20044;-37
2022/04/06 05:00:34;;;;;;;7.05;5.10;;;;;;;;;;5012382;28;20025;-38
2022/04/06 05:03:00;;;;;;;4.78;3.75;;;;;;;;;;5012401;28;20101;-37
2022/04/06 05:05:25;;;;;;;8.20;5.00;;;;;;;;;;5012109;28;20168;-37
2022/04/06 05:07:51;;;;;;;7.75;4.80;;;;;;;;;;5012328;28;20037;-37
2022/04/06 05:10:17;;;;;;;8.40;5.05;;;;;;;;;;5012109;28;20494;-40
2022/04/06 05:12:43;;;;;;;9.38;5.05;;;;;;;;;;5012342;28;20022;-37
2022/04/06 05:15:10;;;;;;;9.15;4.80;;;;;;;;;;5013503;28;20022;-38
2022/04/06 05:17:36;;;;;;;6.15;4.18;;;;;;;;;;5015627;28;20129;-38
2022/04/06 05:20:02;;;;;;;5.10;3.80;;;;;;;;;;5015679;28;20093;-37
2022/04/06 05:22:27;;;;;;;6.20;3.70;;;;;;;;;;5015815;28;20064;-37
2022/04/06 05:24:53;;;;;;;6.68;4.43;;;;;;;;;;5015897;28;20053;-38
2022/04/06 05:27:19;;;;;;;6.75;4.45;;;;;;;;;;5015539;28;20451;-38
2022/04/06 05:29:46;;;;;;;7.10;4.28;;;;;;;;;;5015487;28;20108;-38
2022/04/06 05:32:12;;;;;;;7.40;4.43;;;;;;;;;;4998018;28;20092;-38
2022/04/06 05:34:37;;;;;;;5.70;4.47;;;;;;;;;;5015552;28;20073;-38
2022/04/06 05:37:03;;;;;;;5.78;3.88;;;;;;;;;;5015269;28;20053;-38
2022/04/06 05:39:28;;;;;;;6.60;3.70;;;;;;;;;;5015474;28;20034;-38
2022/04/06 05:41:54;;;;;;;5.40;3.42;;;;;;;;;;5015385;28;20030;-38
2022/04/06 05:44:20;;;;;;;5.57;3.95;;;;;;;;;;5015177;28;20428;-39
2022/04/06 05:46:46;;;;;;;7.88;4.40;;;;;;;;;;5015098;28;20059;-38
2022/04/06 05:49:11;;;;;;;4.68;3.75;;;;;;;;;;5015143;28;20029;-38
2022/04/06 05:51:37;;;;;;;2.83;2.55;;;;;;;;;;5015059;28;20030;-38
2022/04/06 05:54:03;;;;;;;4.00;3.17;;;;;;;;;;5015574;28;20022;-38
2022/04/06 05:56:29;;;;;;;4.18;3.30;;;;;;;;;;5014867;28;20113;-38
2022/04/06 05:58:55;;;;;;;5.22;2.70;;;;;;;;;;5014974;28;20025;-38
2022/04/06 06:01:20;;;;;;;5.80;2.55;;;;;;;;;;5014927;28;20045;-39
2022/04/06 06:03:46;;;;;;;4.15;2.60;;;;;;;;;;5015197;28;20117;-38
2022/04/06 06:06:11;;;;;;;3.63;2.42;;;;;;;;;;5015000;28;20029;-39
2022/04/06 06:08:37;;;;;;;2.72;1.92;;;;;;;;;;5014840;28;20493;-38
2022/04/06 06:11:03;;;;;;;2.53;2.28;;;;;;;;;;5014696;28;20034;-39
2022/04/06 06:13:29;;;;;;;3.22;2.75;;;;;;;;;;5014870;28;20041;-39
2022/04/06 06:15:55;;;;;;;2.63;2.05;;;;;;;;;;5014912;28;20026;-38
2022/04/06 06:18:21;;;;;;;3.97;3.28;;;;;;;;;;5014321;28;20482;-38
2022/04/06 06:20:46;;;;;;;4.28;2.85;;;;;;;;;;5014567;28;20022;-39
2022/04/06 06:23:12;;;;;;;3.55;3.03;;;;;;;;;;5014654;28;20030;-39
2022/04/06 06:25:38;;;;;;;3.97;3.08;;;;;;;;;;5014363;28;20128;-39
2022/04/06 06:28:03;;;;;;;3.88;2.75;;;;;;;;;;5013677;28;20375;-39
2022/04/06 06:30:28;;;;;;;3.42;2.78;;;;;;;;;;5014558;28;20053;-39
2022/04/06 06:32:54;;;;;;;3.13;2.72;;;;;;;;;;5014524;28;20029;-39
2022/04/06 06:35:21;;;;;;;5.82;2.65;;;;;;;;;;5014456;28;20025;-38
2022/04/06 06:37:48;;;;;;;3.45;2.42;;;;;;;;;;5014130;28;20064;-39
2022/04/06 06:40:16;;;;;;;4.32;3.17;;;;;;;;;;5014022;28;20040;-39
2022/04/06 06:42:41;;;;;;;4.32;2.20;;;;;;;;;;5014041;28;20029;-38
2022/04/06 06:45:07;;;;;;;3.45;2.65;;;;;;;;;;5014278;28;20026;-38
2022/04/06 06:47:33;;;;;;;2.97;2.45;;;;;;;;;;5014287;28;20137;-38
2022/04/06 06:49:58;;;;;;;3.40;3.05;;;;;;;;;;5013898;28;20492;-37
2022/04/06 06:52:24;;;;;;;3.88;2.45;;;;;;;;;;5013392;28;20046;-38
2022/04/06 06:54:49;;;;;;;2.97;2.45;;;;;;;;;;5013802;28;20087;-38
2022/04/06 06:57:15;;;;;;;3.80;3.05;;;;;;;;;;5013799;28;20441;-39
2022/04/06 06:59:41;;;;;;;7.30;3.08;;;;;;;;;;5014025;28;20097;-39
2022/04/06 07:02:08;;;;;;;4.68;3.28;;;;;;;;;;5013702;28;20069;-39
2022/04/06 07:04:34;;;;;;;4.97;2.95;;;;;;;;;;5013617;28;20479;-39
2022/04/06 07:06:59;;;;;;;4.97;2.85;;;;;;;;;;5013850;28;20029;-39
2022/04/06 07:09:25;;;;;;;6.22;3.40;;;;;;;;;;5013816;28;20061;-39
2022/04/06 07:11:52;;;;;;;5.22;2.78;;;;;;;;;;5013333;28;20026;-39
2022/04/06 07:14:18;;;;;;;4.45;3.10;;;;;;;;;;5013755;28;20034;-39
2022/04/06 07:16:43;;;;;;;5.30;3.22;;;;;;;;;;5013394;28;20497;-39
2022/04/06 07:19:09;;;;;;;4.50;3.33;;;;;;;;;;5013395;28;20292;-39
2022/04/06 07:21:34;;;;;;;3.40;2.83;;;;;;;;;;5013821;28;20036;-38
2022/04/06 07:24:02;;;;;;;2.22;2.00;;;;;;;;;;5013674;28;20041;-39
2022/04/06 07:26:27;;;;;;;4.47;2.60;;;;;;;;;;5013287;28;20490;-40
2022/04/06 07:28:53;;;;;;;4.03;2.78;;;;;;;;;;5013354;28;20030;-39
2022/04/06 07:31:18;;;;;;;3.83;2.67;;;;;;;;;;5013530;28;20069;-38
2022/04/06 07:33:44;;;;;;;3.28;2.85;;;;;;;;;;4995725;28;20030;-39
2022/04/06 07:36:09;;;;;;;4.47;3.42;;;;;;;;;;5013206;28;20129;-39
2022/04/06 07:38:35;;;;;;;3.22;2.40;;;;;;;;;;5012903;28;20307;-38
2022/04/06 07:41:01;;;;;;;3.75;2.83;;;;;;;;;;5013066;28;20034;-39
2022/04/06 07:43:26;;;;;;;3.97;2.60;;;;;;;;;;5013069;28;20030;-40
2022/04/06 07:45:52;;;;;;;3.13;2.67;;;;;;;;;;5013196;28;20041;-39
2022/04/06 07:48:17;;;;;;;4.40;2.15;;;;;;;;;;5013153;28;20099;-40
2022/04/06 07:50:43;;;;;;;4.22;3.40;;;;;;;;;;5012924;28;20030;-40
2022/04/06 07:53:08;;;;;;;4.65;3.05;;;;;;;;;;5012645;28;20069;-40
2022/04/06 07:55:34;;;;;;;12.35;5.03;;;;;;;;;;5012855;28;20072;-39
2022/04/06 07:58:00;;;;;;;6.97;3.47;;;;;;;;;;5012876;28;20034;-39
2022/04/06 08:00:32;;;;;;;4.55;2.60;;;;;;;;;;4995188;28;20434;-41
2022/04/06 08:02:58;;;;;;;3.22;2.90;;;;;;;;;;5012871;28;20065;-39
2022/04/06 08:05:24;;;;;;;4.72;3.20;;;;;;;;;;5012656;28;20418;-41
2022/04/06 08:07:52;;;;;;;7.28;4.13;;;;;;;;;;5012749;28;20072;-39
2022/04/06 08:10:18;;;;;;;5.28;3.10;;;;;;;;;;5012600;28;20397;-40
2022/04/06 08:12:44;;;;;;;4.53;3.40;;;;;;;;;;5012547;28;20026;-38
2022/04/06 08:15:10;;;;;;;4.25;3.33;;;;;;;;;;5012879;28;20087;-40
2022/04/06 08:17:38;;;;;;;4.00;3.20;;;;;;;;;;5012389;28;20494;-42
2022/04/06 08:20:05;;;;;;;4.20;3.20;;;;;;;;;;5012743;28;20162;-40
2022/04/06 08:22:31;;;;;;;4.45;3.33;;;;;;;;;;5010842;28;20145;-39
2022/04/06 08:24:57;;;;;;;4.57;3.42;;;;;;;;;;5010670;28;20454;-40
2022/04/06 08:27:22;;;;;;;6.97;3.47;;;;;;;;;;5010577;28;20027;-42
2022/04/06 08:29:48;;;;;;;4.18;3.35;;;;;;;;;;5010340;28;20029;-38
2022/04/06 08:32:14;;;;;;;6.45;4.70;;;;;;;;;;5010161;28;20046;-39
2022/04/06 08:34:40;;;;;;;5.78;3.63;;;;;;;;;;5011965;28;20026;-38
2022/04/06 08:37:08;;;;;;;11.10;4.05;;;;;;;;;;5012379;28;20057;-38
2022/04/06 08:39:34;;;;;;;4.90;3.70;;;;;;;;;;4994483;28;20030;-38
2022/04/06 08:42:00;;;;;;;5.75;3.63;;;;;;;;;;4994592;28;20034;-40
2022/04/06 08:44:26;;;;;;;5.90;3.80;;;;;;;;;;5012091;28;20014;-39
2022/04/06 08:46:54;;;;;;;4.45;3.58;;;;;;;;;;5012328;28;20029;-39
2022/04/06 08:49:23;;;;;;;7.75;3.70;;;;;;;;;;5012402;28;20030;-39
2022/04/06 08:51:48;;;;;;;5.88;3.78;;;;;;;;;;5015728;28;20804;-41
2022/04/06 08:54:14;;;;;;;5.22;3.70;;;;;;;;;;5015895;28;20050;-39
2022/04/06 08:56:39;;;;;;;5.38;3.47;;;;;;;;;;5016212;28;20022;-40
2022/04/06 08:59:05;;;;;;;9.20;4.18;;;;;;;;;;5015872;28;20057;-39
2022/04/06 09:01:33;;;;;;;9.70;3.90;;;;;;;;;;5016246;28;20033;-38
2022/04/06 09:04:02;;;;;;;5.50;4.00;;;;;;;;;;5015869;28;20025;-39
2022/04/06 09:06:32;;;;;;;8.43;3.72;;;;;;;;;;5016057;28;20029;-40
2022/04/06 09:08:57;;;;;;;5.95;4.03;;;;;;;;;;5015735;28;20526;-39
2022/04/06 09:11:24;;;;;;;4.68;3.40;;;;;;;;;;5015928;28;20037;-39
2022/04/06 09:13:59;;;;;;;4.05;3.38;;;;;;;;;;5015634;28;20432;-38
2022/04/06 09:16:32;;;;;;;4.53;3.47;;;;;;;;;;5015513;28;20061;-38
2022/04/06 09:19:07;;;;;;;6.00;3.47;;;;;;;;;;5015835;28;20049;-38
2022/04/06 09:21:39;;;;;;;5.75;3.75;;;;;;;;;;5015563;28;20021;-39
2022/04/06 09:24:04;;;;;;;5.65;3.50;;;;;;;;;;5015807;28;20022;-38
2022/04/06 09:26:32;;;;;;;5.10;3.70;;;;;;;;;;5015195;28;20034;-40
2022/04/06 09:28:57;;;;;;;4.30;3.60;;;;;;;;;;5015218;28;20065;-39
2022/04/06 09:31:23;;;;;;;4.47;3.42;;;;;;;;;;5015212;28;20057;-38
2022/04/06 09:33:59;;;;;;;5.95;3.58;;;;;;;;;;5015178;28;20030;-40
2022/04/06 09:36:28;;;;;;;5.63;3.90;;;;;;;;;;5015491;28;20037;-38
2022/04/06 09:38:53;;;;;;;4.80;3.90;;;;;;;;;;5015071;28;20033;-38
2022/04/06 09:41:19;;;;;;;7.47;3.40;;;;;;;;;;5015251;28;20034;-39
2022/04/06 09:43:50;;;;;;;5.68;3.35;;;;;;;;;;4997670;28;20429;-41
2022/04/06 09:49:13;;;;;;;7.72;2.95;;;;;;;;;;5015448;28;20424;-39
2022/04/06 09:51:41;;;;;;;5.43;3.80;;;;;;;;;;5014783;28;20029;-42
2022/04/06 09:54:09;;;;;;;6.60;3.92;;;;;;;;;;5014764;28;20054;-46
2022/04/06 09:56:35;;;;;;;6.45;4.00;;;;;;;;;;5013013;28;20482;-43
2022/04/06 09:59:03;;;;;;;7.13;4.15;;;;;;;;;;5014656;28;20033;-41
2022/04/06 10:01:34;;;;;;;6.18;4.35;;;;;;;;;;5013154;28;20030;-42
2022/04/06 10:04:10;;;;;;;5.95;4.70;;;;;;;;;;5014606;28;20076;-43
2022/04/06 10:06:38;;;;;;;6.57;4.60;;;;;;;;;;5014489;28;20021;-42
2022/04/06 10:09:07;;;;;;;9.90;4.60;;;;;;;;;;5014746;28;20273;-44
2022/04/06 10:11:38;;;;;;;4.53;3.40;;;;;;;;;;4997046;28;20037;-46
2022/04/06 10:14:05;;;;;;;4.28;3.70;;;;;;;;;;5014937;28;20026;-42
2022/04/06 10:16:32;;;;;;;7.07;4.43;;;;;;;;;;5014576;28;20065;-42
2022/04/06 10:18:59;;;;;;;5.90;3.95;;;;;;;;;;5014875;28;20034;-42
2022/04/06 10:21:39;;;;;;;6.72;4.10;;;;;;;;;;5014802;28;20441;-49
2022/04/06 10:24:51;;;;;;;4.82;4.20;;;;;;;;;;5014519;28;20022;-39
2022/04/06 10:27:34;;;;;;;6.57;4.07;;;;;;;;;;4997027;28;20041;-40
2022/04/06 10:30:16;;;;;;;5.43;4.28;;;;;;;;;;5014751;28;20413;-39
2022/04/06 10:32:48;;;;;;;4.65;4.00;;;;;;;;;;5014612;28;20053;-45
2022/04/06 10:35:17;;;;;;;6.60;5.25;;;;;;;;;;4996986;28;20033;-44
2022/04/06 10:37:52;;;;;;;8.67;5.73;;;;;;;;;;5014416;28;20044;-44
2022/04/06 10:40:18;;;;;;;7.97;5.38;;;;;;;;;;5014209;28;20022;-44
2022/04/06 10:42:45;;;;;;;4.13;3.40;;;;;;;;;;5014356;28;20080;-48
2022/04/06 10:45:28;;;;;;;4.63;3.42;;;;;;;;;;5014169;28;20026;-44
2022/04/06 10:48:13;;;;;;;3.95;3.42;;;;;;;;;;5014355;28;20058;-40
2022/04/06 10:50:44;;;;;;;4.20;3.72;;;;;;;;;;5014225;28;20026;-47
2022/04/06 10:53:19;;;;;;;5.25;2.97;;;;;;;;;;5013900;28;20513;-43
2022/04/06 10:56:12;;;;;;;3.95;3.55;;;;;;;;;;5014023;28;20026;-44
2022/04/06 10:58:55;;;;;;;4.57;3.40;;;;;;;;;;5013841;28;20545;-44
2022/04/06 11:01:32;;;;;;;4.32;3.33;;;;;;;;;;5013887;28;20093;-45
2022/04/06 11:04:03;;;;;;;5.25;3.63;;;;;;;;;;5013629;28;20026;-43
2022/04/06 11:06:40;;;;;;;4.25;3.85;;;;;;;;;;5013749;28;20370;-46
2022/04/06 11:12:11;;;;;;;5.35;3.97;;;;;;;;;;5009828;28;20516;-40
2022/04/06 11:14:36;;;;;;;4.25;3.58;;;;;;;;;;5010863;28;20034;-40
2022/04/06 11:17:37;;;;;;;4.72;3.40;;;;;;;;;;5010805;28;20034;-42
2022/04/06 11:20:20;;;;;;;4.50;3.65;;;;;;;;;;5010376;28;20034;-44
2022/04/06 11:22:54;;;;;;;6.63;3.75;;;;;;;;;;5010558;28;20058;-43
2022/04/06 11:25:22;;;;;;;6.78;4.05;;;;;;;;;;5010498;28;20026;-42
2022/04/06 11:27:48;;;;;;;5.07;3.75;;;;;;;;;;5010738;28;20120;-42
2022/04/06 11:30:19;;;;;;;7.95;4.35;;;;;;;;;;5010251;28;20038;-43
2022/04/06 11:32:51;;;;;;;4.97;3.58;;;;;;;;;;5010459;28;20196;-40
2022/04/06 11:35:17;;;;;;;5.05;3.67;;;;;;;;;;5010418;28;20034;-44
2022/04/06 11:37:48;;;;;;;5.00;3.67;;;;;;;;;;5009978;28;20049;-41
2022/04/06 11:40:16;;;;;;;3.33;2.97;;;;;;;;;;5010271;28;20033;-40
2022/04/06 11:42:41;;;;;;;5.10;3.47;;;;;;;;;;5010292;28;20370;-41
2022/04/06 11:45:09;;;;;;;4.93;3.55;;;;;;;;;;5009670;28;20030;-43
2022/04/06 11:47:36;;;;;;;4.65;3.30;;;;;;;;;;5009936;28;20043;-40
2022/04/06 11:50:05;;;;;;;3.80;3.00;;;;;;;;;;5009881;28;20033;-43
2022/04/06 11:52:32;;;;;;;4.93;3.60;;;;;;;;;;5009730;28;20049;-45
2022/04/06 11:54:58;;;;;;;5.07;3.42;;;;;;;;;;5009959;28;20033;-44
2022/04/06 11:57:38;;;;;;;3.50;2.70;;;;;;;;;;5009979;28;20029;-41
2022/04/06 12:00:04;;;;;;;;;;;;;;;;;;5010090;28;20034;-42
2022/04/06 12:02:52;;;;;;;4.97;3.55;;;;;;;;;;5009666;28;19921;-44
2022/04/06 12:05:19;;;;;;;4.82;3.80;;;;;;;;;;5008884;28;20030;-43
2022/04/06 12:07:46;;;;;;;5.43;4.50;;;;;;;;;;5009504;28;20026;-42
2022/04/06 12:10:13;;;;;;;5.18;3.92;;;;;;;;;;5010086;28;20041;-45
2022/04/06 12:12:39;;;;;;;5.07;4.10;;;;;;;;;;5009698;28;20030;-42
2022/04/06 12:15:06;;;;;;;7.22;3.70;;;;;;;;;;5009162;28;20038;-42
2022/04/06 12:17:37;;;;;;;8.10;3.75;;;;;;;;;;5009687;28;20547;-42
2022/04/06 12:20:22;;;;;;;6.13;4.03;;;;;;;;;;5009753;28;20033;-42
2022/04/06 12:23:05;;;;;;;6.10;3.97;;;;;;;;;;4991702;28;20068;-42
2022/04/06 12:25:35;;;;;;;3.72;3.33;;;;;;;;;;5008766;28;20105;-43
2022/04/06 12:28:21;;;;;;;6.07;3.83;;;;;;;;;;5009341;28;20439;-46
2022/04/06 12:30:59;;;;;;;8.40;3.95;;;;;;;;;;4991612;28;20034;-42
2022/04/06 12:33:47;;;;;;;5.90;3.58;;;;;;;;;;5009473;28;20109;-45
2022/04/06 12:36:27;;;;;;;4.30;3.50;;;;;;;;;;5009446;28;20029;-48
2022/04/06 12:39:10;;;;;;;7.72;3.38;;;;;;;;;;5009400;28;20041;-43
2022/04/06 12:41:53;;;;;;;4.68;3.67;;;;;;;;;;5009691;28;20486;-44
2022/04/06 12:44:19;;;;;;;6.70;4.07;;;;;;;;;;5009428;28;20037;-40
2022/04/06 12:46:47;;;;;;;5.70;3.67;;;;;;;;;;5009436;28;20029;-43
2022/04/06 12:49:27;;;;;;;4.55;3.67;;;;;;;;;;5009617;28;20530;-42
2022/04/06 12:52:04;;;;;;;4.88;3.70;;;;;;;;;;5009172;28;20030;-44
2022/04/06 12:54:33;;;;;;;8.25;4.00;;;;;;;;;;5009426;28;20026;-42
2022/04/06 12:57:25;;;;;;;4.18;3.42;;;;;;;;;;5009332;28;20049;-44
2022/04/06 12:59:57;;;;;;;6.78;3.25;;;;;;;;;;5002364;28;20080;-45
2022/04/06 13:02:24;;;;;;;4.20;3.00;;;;;;;;;;5010525;28;20034;-43
2022/04/06 13:04:51;;;;;;;7.75;3.05;;;;;;;;;;5010489;28;20474;-46
2022/04/06 13:07:16;;;;;;;3.10;2.80;;;;;;;;;;5010828;28;20108;-43
2022/04/06 13:09:48;;;;;;;4.45;3.10;;;;;;;;;;5010635;28;20553;-45
2022/04/06 13:12:14;;;;;;;6.22;2.90;;;;;;;;;;5010491;28;20121;-44
2022/04/06 13:14:39;;;;;;;4.03;3.60;;;;;;;;;;5010663;28;20145;-40
2022/04/06 13:17:05;;;;;;;4.50;2.85;;;;;;;;;;5010344;28;20508;-44
2022/04/06 13:19:30;;;;;;;4.72;3.20;;;;;;;;;;5010389;28;20106;-44
2022/04/06 13:21:56;;;;;;;5.70;2.97;;;;;;;;;;5009190;28;20103;-41
2022/04/06 13:24:22;;;;;;;7.63;2.63;;;;;;;;;;5010485;28;20103;-43
2022/04/06 13:26:48;;;;;;;5.82;3.35;;;;;;;;;;5010529;28;20032;-43
2022/04/06 13:29:14;;;;;;;4.20;3.20;;;;;;;;;;5010456;28;20406;-41
2022/04/06 13:31:41;;;;;;;10.63;3.90;;;;;;;;;;5010208;28;20026;-43
2022/04/06 13:34:08;;;;;;;5.53;2.88;;;;;;;;;;5010192;28;20039;-43
2022/04/06 13:36:33;;;;;;;7.43;3.78;;;;;;;;;;5012785;28;20026;-43
2022/04/06 13:38:58;;;;;;;4.32;3.08;;;;;;;;;;5013556;28;20030;-46
2022/04/06 13:41:27;;;;;;;7.03;3.03;;;;;;;;;;5013770;28;20022;-41
2022/04/06 13:43:54;;;;;;;3.10;2.55;;;;;;;;;;5013905;28;20040;-42
2022/04/06 13:46:20;;;;;;;4.85;3.35;;;;;;;;;;5013811;28;20042;-45
2022/04/06 13:48:45;;;;;;;7.47;2.90;;;;;;;;;;5013872;28;20568;-40
2022/04/06 13:51:12;;;;;;;4.68;3.20;;;;;;;;;;5013916;28;20052;-42
2022/04/06 13:53:38;;;;;;;2.25;1.98;;;;;;;;;;5013100;28;20057;-40
2022/04/06 13:56:04;;;;;;;4.57;2.75;;;;;;;;;;5013289;28;20040;-42
2022/04/06 13:58:30;;;;;;;3.05;2.40;;;;;;;;;;5013700;28;20044;-43
2022/04/06 14:00:57;;;;;;;4.20;2.85;;;;;;;;;;5013004;28;20022;-43
2022/04/06 14:03:24;;;;;;;4.35;3.22;;;;;;;;;;5013571;28;20041;-43
2022/04/06 14:05:55;;;;;;;4.30;2.95;;;;;;;;;;5013122;28;20105;-40
2022/04/06 14:08:25;;;;;;;4.07;2.95;;;;;;;;;;5013428;28;20044;-40
2022/04/06 14:10:51;;;;;;;3.85;2.50;;;;;;;;;;5013457;28;20034;-41
2022/04/06 14:13:16;;;;;;;5.05;3.13;;;;;;;;;;5013123;28;20034;-44
2022/04/06 14:15:43;;;;;;;4.60;2.70;;;;;;;;;;5013374;28;20034;-40
2022/04/06 14:18:09;;;;;;;4.35;2.92;;;;;;;;;;5013003;28;20065;-42
2022/04/06 14:20:34;;;;;;;3.67;2.83;;;;;;;;;;5013360;28;20057;-44
2022/04/06 14:23:00;;;;;;;4.40;3.30;;;;;;;;;;5012895;28;20472;-41
2022/04/06 14:25:25;;;;;;;4.93;2.60;;;;;;;;;;5013354;28;20104;-40
2022/04/06 14:27:51;;;;;;;3.97;3.20;;;;;;;;;;5013177;28;20108;-43
2022/04/06 14:30:17;;;;;;;4.75;3.05;;;;;;;;;;5012878;28;20022;-41
2022/04/06 14:32:43;;;;;;;3.83;2.55;;;;;;;;;;5012702;28;20594;-42
2022/04/06 14:35:10;;;;;;;3.45;1.98;;;;;;;;;;5012779;28;20037;-44
2022/04/06 14:37:36;;;;;;;3.70;2.17;;;;;;;;;;5012801;28;20038;-42
2022/04/06 14:40:03;;;;;;;5.10;2.58;;;;;;;;;;5012839;28;20040;-43
2022/04/06 14:42:29;;;;;;;6.20;3.15;;;;;;;;;;5012741;28;20030;-41
2022/04/06 14:44:55;;;;;;;3.85;2.95;;;;;;;;;;5012812;28;20441;-42
2022/04/06 14:47:22;;;;;;;3.20;2.78;;;;;;;;;;5011972;28;20155;-47
2022/04/06 14:49:47;;;;;;;3.08;2.08;;;;;;;;;;5012475;28;20485;-44
2022/04/06 14:52:13;;;;;;;4.45;2.33;;;;;;;;;;5012238;28;20070;-45